AYNZ/LAE METAR and TAF weather

Enter ICAO airport designator
Station Type Date Time Source
AYNZ METAR 2018/04/26 09:00 UTC NOAA

AYNZ 260900Z 06010KT 9999 FEW030 SCT050 28/23 Q1008


Station Type Date Time Source
AYNZ Decoded METAR 2018/04/26 09:00 UTC NOAA

Station name not available
Apr 26, 2018 - 05:00 AM EDT / 2018.04.26 0900 UTC
Wind: from the ENE (060 degrees) at 12 MPH (10 KT):0
Visibility: greater than 7 mile(s):0
Sky conditions: partly cloudy
Temperature: 82 F (28 C)
Dew Point: 73 F (23 C)
Relative Humidity: 74%
Pressure (altimeter): 29.77 in. Hg (1008 hPa)
ob: AYNZ 260900Z 06010KT 9999 FEW030 SCT050 28/23 Q1008
cycle: 9

Station Type Date Time Source
AYNZ TAF 2015/08/19 08:15 UTC NOAA

TAF AYNZ 190550Z 1908/1920 09015KT 9999 SCT020 SCT120
FM191400 VRB03KT 9999 BKN040 Q 1011 1014 1013 1010


Example: see airport list